sensor_id;sensor_type;location;lat;lon;timestamp;temperature;humidity
10304;DHT22;5197;48.152;8.590;2023-04-06T00:00:53;0.10;1.00
10304;DHT22;5197;48.152;8.590;2023-04-06T00:03:20;0.10;1.00
10304;DHT22;5197;48.152;8.590;2023-04-06T00:05:48;0.10;1.00
10304;DHT22;5197;48.152;8.590;2023-04-06T00:08:15;0.10;1.00
10304;DHT22;5197;48.152;8.590;2023-04-06T00:10:42;0.10;1.00
10304;DHT22;5197;48.152;8.590;2023-04-06T00:13:09;0.10;1.00
10304;DHT22;5197;48.152;8.590;2023-04-06T00:15:35;0.00;1.00
10304;DHT22;5197;48.152;8.590;2023-04-06T00:18:03;0.00;1.00
10304;DHT22;5197;48.152;8.590;2023-04-06T00:20:30;-0.10;1.00
10304;DHT22;5197;48.152;8.590;2023-04-06T00:22:57;-0.10;1.00
10304;DHT22;5197;48.152;8.590;2023-04-06T00:25:24;-0.20;1.00
10304;DHT22;5197;48.152;8.590;2023-04-06T00:27:50;-0.20;1.00
10304;DHT22;5197;48.152;8.590;2023-04-06T00:30:17;-0.30;1.00
10304;DHT22;5197;48.152;8.590;2023-04-06T00:32:44;-0.30;1.00
10304;DHT22;5197;48.152;8.590;2023-04-06T00:35:11;-0.40;1.00
10304;DHT22;5197;48.152;8.590;2023-04-06T00:37:38;-0.40;1.00
10304;DHT22;5197;48.152;8.590;2023-04-06T00:40:05;-0.40;1.00
10304;DHT22;5197;48.152;8.590;2023-04-06T00:42:32;-0.40;1.00
10304;DHT22;5197;48.152;8.590;2023-04-06T00:45:01;-0.40;1.00
10304;DHT22;5197;48.152;8.590;2023-04-06T00:47:28;-0.40;1.00
10304;DHT22;5197;48.152;8.590;2023-04-06T00:49:56;-0.40;1.00
10304;DHT22;5197;48.152;8.590;2023-04-06T00:52:22;-0.40;1.00
10304;DHT22;5197;48.152;8.590;2023-04-06T00:54:50;-0.30;1.00
10304;DHT22;5197;48.152;8.590;2023-04-06T00:57:17;-0.40;1.00
10304;DHT22;5197;48.152;8.590;2023-04-06T00:59:44;-0.40;1.00
10304;DHT22;5197;48.152;8.590;2023-04-06T01:02:11;-0.30;1.00
10304;DHT22;5197;48.152;8.590;2023-04-06T01:04:38;-0.40;1.00
10304;DHT22;5197;48.152;8.590;2023-04-06T01:07:05;-0.40;1.00
10304;DHT22;5197;48.152;8.590;2023-04-06T01:09:32;-0.40;1.00
10304;DHT22;5197;48.152;8.590;2023-04-06T01:11:59;-0.50;1.00
10304;DHT22;5197;48.152;8.590;2023-04-06T01:14:26;-0.60;1.00
10304;DHT22;5197;48.152;8.590;2023-04-06T01:16:53;-0.60;1.00
10304;DHT22;5197;48.152;8.590;2023-04-06T01:19:20;-0.70;1.00
10304;DHT22;5197;48.152;8.590;2023-04-06T01:21:48;-0.70;1.00
10304;DHT22;5197;48.152;8.590;2023-04-06T01:24:16;-0.80;1.00
10304;DHT22;5197;48.152;8.590;2023-04-06T01:26:45;-0.90;1.00
10304;DHT22;5197;48.152;8.590;2023-04-06T01:29:12;-1.00;1.00
10304;DHT22;5197;48.152;8.590;2023-04-06T01:31:39;-1.00;1.00
10304;DHT22;5197;48.152;8.590;2023-04-06T01:34:06;-1.00;1.00
10304;DHT22;5197;48.152;8.590;2023-04-06T01:36:33;-1.00;1.00
10304;DHT22;5197;48.152;8.590;2023-04-06T01:39:00;-1.10;1.00
10304;DHT22;5197;48.152;8.590;2023-04-06T01:41:27;-1.00;1.00
10304;DHT22;5197;48.152;8.590;2023-04-06T01:43:53;-1.00;1.00
10304;DHT22;5197;48.152;8.590;2023-04-06T01:46:21;-1.00;1.00
10304;DHT22;5197;48.152;8.590;2023-04-06T01:48:48;-1.00;1.00
10304;DHT22;5197;48.152;8.590;2023-04-06T01:51:15;-1.00;1.00
10304;DHT22;5197;48.152;8.590;2023-04-06T01:53:42;-1.00;1.00
10304;DHT22;5197;48.152;8.590;2023-04-06T01:56:09;-1.00;1.00
10304;DHT22;5197;48.152;8.590;2023-04-06T01:58:36;-1.00;1.00
10304;DHT22;5197;48.152;8.590;2023-04-06T02:01:03;-1.00;1.00
10304;DHT22;5197;48.152;8.590;2023-04-06T02:03:30;-1.10;1.00
10304;DHT22;5197;48.152;8.590;2023-04-06T02:05:58;-1.00;1.00
10304;DHT22;5197;48.152;8.590;2023-04-06T02:08:24;-1.10;1.00
10304;DHT22;5197;48.152;8.590;2023-04-06T02:10:51;-1.00;1.00
10304;DHT22;5197;48.152;8.590;2023-04-06T02:13:18;-1.10;1.00
10304;DHT22;5197;48.152;8.590;2023-04-06T02:15:46;-1.10;1.00
10304;DHT22;5197;48.152;8.590;2023-04-06T02:18:12;-1.10;1.00
10304;DHT22;5197;48.152;8.590;2023-04-06T02:20:39;-1.10;1.00
10304;DHT22;5197;48.152;8.590;2023-04-06T02:23:06;-1.10;1.00
10304;DHT22;5197;48.152;8.590;2023-04-06T02:25:33;-1.20;1.00
10304;DHT22;5197;48.152;8.590;2023-04-06T02:28:00;-1.20;1.00
10304;DHT22;5197;48.152;8.590;2023-04-06T02:30:26;-1.20;1.00
10304;DHT22;5197;48.152;8.590;2023-04-06T02:32:53;-1.20;1.00
10304;DHT22;5197;48.152;8.590;2023-04-06T02:35:20;-1.30;1.00
10304;DHT22;5197;48.152;8.590;2023-04-06T02:37:47;-1.30;1.00
10304;DHT22;5197;48.152;8.590;2023-04-06T02:40:14;-1.30;1.00
10304;DHT22;5197;48.152;8.590;2023-04-06T02:42:41;-1.30;1.00
10304;DHT22;5197;48.152;8.590;2023-04-06T02:45:08;-1.40;1.00
10304;DHT22;5197;48.152;8.590;2023-04-06T02:47:35;-1.40;1.00
10304;DHT22;5197;48.152;8.590;2023-04-06T02:50:02;-1.40;1.00
10304;DHT22;5197;48.152;8.590;2023-04-06T02:52:29;-1.40;1.00
10304;DHT22;5197;48.152;8.590;2023-04-06T02:54:56;-1.50;1.00
10304;DHT22;5197;48.152;8.590;2023-04-06T02:57:23;-1.60;1.00
10304;DHT22;5197;48.152;8.590;2023-04-06T02:59:49;-1.60;1.00
10304;DHT22;5197;48.152;8.590;2023-04-06T03:02:16;-1.70;1.00
10304;DHT22;5197;48.152;8.590;2023-04-06T03:04:44;-1.70;1.00
10304;DHT22;5197;48.152;8.590;2023-04-06T03:07:11;-1.70;1.00
10304;DHT22;5197;48.152;8.590;2023-04-06T03:09:38;-1.80;1.00
10304;DHT22;5197;48.152;8.590;2023-04-06T03:12:05;-1.80;1.00
10304;DHT22;5197;48.152;8.590;2023-04-06T03:14:35;-1.80;1.00
10304;DHT22;5197;48.152;8.590;2023-04-06T03:17:02;-1.90;1.00
10304;DHT22;5197;48.152;8.590;2023-04-06T03:19:29;-1.90;1.00
10304;DHT22;5197;48.152;8.590;2023-04-06T03:21:55;-1.90;1.00
10304;DHT22;5197;48.152;8.590;2023-04-06T03:24:22;-1.80;1.10
10304;DHT22;5197;48.152;8.590;2023-04-06T03:26:49;-1.90;1.10
10304;DHT22;5197;48.152;8.590;2023-04-06T03:29:16;-1.80;1.20
10304;DHT22;5197;48.152;8.590;2023-04-06T03:31:43;-1.80;1.20
10304;DHT22;5197;48.152;8.590;2023-04-06T03:34:10;-1.80;1.20
10304;DHT22;5197;48.152;8.590;2023-04-06T03:36:37;-1.80;1.30
10304;DHT22;5197;48.152;8.590;2023-04-06T03:39:04;-1.80;1.20
10304;DHT22;5197;48.152;8.590;2023-04-06T03:41:32;-1.80;1.30
10304;DHT22;5197;48.152;8.590;2023-04-06T03:43:58;-1.90;1.30
10304;DHT22;5197;48.152;8.590;2023-04-06T03:46:25;-1.90;1.40
10304;DHT22;5197;48.152;8.590;2023-04-06T03:48:52;-1.90;1.40
10304;DHT22;5197;48.152;8.590;2023-04-06T03:51:19;-2.00;1.50
10304;DHT22;5197;48.152;8.590;2023-04-06T03:53:46;-2.00;1.50
10304;DHT22;5197;48.152;8.590;2023-04-06T03:56:13;-2.00;1.60
10304;DHT22;5197;48.152;8.590;2023-04-06T03:58:40;-2.00;1.70
10304;DHT22;5197;48.152;8.590;2023-04-06T04:01:06;-2.10;1.90
10304;DHT22;5197;48.152;8.590;2023-04-06T04:03:33;-2.10;1.80
10304;DHT22;5197;48.152;8.590;2023-04-06T04:06:00;-2.10;2.00
10304;DHT22;5197;48.152;8.590;2023-04-06T04:08:27;-2.10;2.10
10304;DHT22;5197;48.152;8.590;2023-04-06T04:10:54;-2.20;2.10
10304;DHT22;5197;48.152;8.590;2023-04-06T04:13:21;-2.20;2.10
10304;DHT22;5197;48.152;8.590;2023-04-06T04:15:48;-2.20;2.40
10304;DHT22;5197;48.152;8.590;2023-04-06T04:18:14;-2.30;2.40
10304;DHT22;5197;48.152;8.590;2023-04-06T04:20:42;-2.30;2.30
10304;DHT22;5197;48.152;8.590;2023-04-06T04:23:08;-2.30;2.30
10304;DHT22;5197;48.152;8.590;2023-04-06T04:25:35;-2.40;2.30
10304;DHT22;5197;48.152;8.590;2023-04-06T04:28:02;-2.40;2.40
10304;DHT22;5197;48.152;8.590;2023-04-06T04:30:29;-2.40;2.30
10304;DHT22;5197;48.152;8.590;2023-04-06T04:32:56;-2.40;2.40
10304;DHT22;5197;48.152;8.590;2023-04-06T04:35:23;-2.40;2.40
10304;DHT22;5197;48.152;8.590;2023-04-06T04:37:50;-2.40;2.50
10304;DHT22;5197;48.152;8.590;2023-04-06T04:40:17;-2.40;2.70
10304;DHT22;5197;48.152;8.590;2023-04-06T04:42:43;-2.40;2.70
10304;DHT22;5197;48.152;8.590;2023-04-06T04:45:11;-2.40;3.00
10304;DHT22;5197;48.152;8.590;2023-04-06T04:47:38;-2.30;3.20
10304;DHT22;5197;48.152;8.590;2023-04-06T04:50:05;-2.20;3.30
10304;DHT22;5197;48.152;8.590;2023-04-06T04:52:32;-2.20;3.30
10304;DHT22;5197;48.152;8.590;2023-04-06T04:54:59;-2.20;3.40
10304;DHT22;5197;48.152;8.590;2023-04-06T04:57:26;-2.10;4.50
10304;DHT22;5197;48.152;8.590;2023-04-06T04:59:52;-2.10;3.50
10304;DHT22;5197;48.152;8.590;2023-04-06T05:02:22;-2.10;3.80
10304;DHT22;5197;48.152;8.590;2023-04-06T05:04:49;-2.00;3.80
10304;DHT22;5197;48.152;8.590;2023-04-06T05:07:16;-2.00;3.80
10304;DHT22;5197;48.152;8.590;2023-04-06T05:09:45;-2.10;3.80
10304;DHT22;5197;48.152;8.590;2023-04-06T05:12:12;-2.10;3.80
10304;DHT22;5197;48.152;8.590;2023-04-06T05:14:39;-2.10;3.90
10304;DHT22;5197;48.152;8.590;2023-04-06T05:17:06;-2.10;3.90
10304;DHT22;5197;48.152;8.590;2023-04-06T05:19:33;-2.10;4.00
10304;DHT22;5197;48.152;8.590;2023-04-06T05:21:59;-2.20;4.10
10304;DHT22;5197;48.152;8.590;2023-04-06T05:24:26;-2.10;4.20
10304;DHT22;5197;48.152;8.590;2023-04-06T05:26:54;-2.10;4.30
10304;DHT22;5197;48.152;8.590;2023-04-06T05:29:21;-2.10;4.40
10304;DHT22;5197;48.152;8.590;2023-04-06T05:31:48;-2.20;4.30
10304;DHT22;5197;48.152;8.590;2023-04-06T05:34:15;-2.00;4.50
10304;DHT22;5197;48.152;8.590;2023-04-06T05:36:42;-2.00;4.60
10304;DHT22;5197;48.152;8.590;2023-04-06T05:39:09;-2.00;4.60
10304;DHT22;5197;48.152;8.590;2023-04-06T05:41:36;-2.00;4.70
10304;DHT22;5197;48.152;8.590;2023-04-06T05:44:03;-1.90;4.70
10304;DHT22;5197;48.152;8.590;2023-04-06T05:46:31;-1.90;4.80
10304;DHT22;5197;48.152;8.590;2023-04-06T05:48:58;-1.90;4.80
10304;DHT22;5197;48.152;8.590;2023-04-06T05:51:25;-1.80;4.90
10304;DHT22;5197;48.152;8.590;2023-04-06T05:53:53;-1.70;5.00
10304;DHT22;5197;48.152;8.590;2023-04-06T05:56:20;-1.70;5.10
10304;DHT22;5197;48.152;8.590;2023-04-06T05:58:47;-1.70;5.20
10304;DHT22;5197;48.152;8.590;2023-04-06T06:01:13;-1.70;5.20
10304;DHT22;5197;48.152;8.590;2023-04-06T06:03:40;-1.60;5.50
10304;DHT22;5197;48.152;8.590;2023-04-06T06:06:07;-1.60;5.60
10304;DHT22;5197;48.152;8.590;2023-04-06T06:08:34;-1.50;5.70
10304;DHT22;5197;48.152;8.590;2023-04-06T06:11:01;-1.40;5.80
10304;DHT22;5197;48.152;8.590;2023-04-06T06:13:28;-1.40;5.80
10304;DHT22;5197;48.152;8.590;2023-04-06T06:15:55;-1.30;6.00
10304;DHT22;5197;48.152;8.590;2023-04-06T06:18:22;-1.30;6.30
10304;DHT22;5197;48.152;8.590;2023-04-06T06:20:49;-1.20;7.30
10304;DHT22;5197;48.152;8.590;2023-04-06T06:23:16;-1.10;6.40
10304;DHT22;5197;48.152;8.590;2023-04-06T06:25:43;-1.00;6.60
10304;DHT22;5197;48.152;8.590;2023-04-06T06:28:09;-0.80;6.80
10304;DHT22;5197;48.152;8.590;2023-04-06T06:30:36;-0.50;8.40
10304;DHT22;5197;48.152;8.590;2023-04-06T06:33:03;-0.20;8.30
10304;DHT22;5197;48.152;8.590;2023-04-06T06:35:30;0.30;9.40
10304;DHT22;5197;48.152;8.590;2023-04-06T06:37:57;0.90;10.50
10304;DHT22;5197;48.152;8.590;2023-04-06T06:40:24;1.50;11.10
10304;DHT22;5197;48.152;8.590;2023-04-06T06:42:51;2.20;11.00
10304;DHT22;5197;48.152;8.590;2023-04-06T06:45:18;2.80;10.50
10304;DHT22;5197;48.152;8.590;2023-04-06T06:47:46;3.40;9.20
10304;DHT22;5197;48.152;8.590;2023-04-06T06:50:13;3.90;8.20
10304;DHT22;5197;48.152;8.590;2023-04-06T06:52:40;4.40;7.30
10304;DHT22;5197;48.152;8.590;2023-04-06T06:55:09;4.90;6.40
10304;DHT22;5197;48.152;8.590;2023-04-06T06:57:37;5.40;5.40
10304;DHT22;5197;48.152;8.590;2023-04-06T07:00:06;5.80;3.50
10304;DHT22;5197;48.152;8.590;2023-04-06T07:02:34;6.30;1.20
10304;DHT22;5197;48.152;8.590;2023-04-06T07:05:02;6.50;1.00
10304;DHT22;5197;48.152;8.590;2023-04-06T07:07:42;6.70;1.00
10304;DHT22;5197;48.152;8.590;2023-04-06T07:10:09;7.00;1.00
10304;DHT22;5197;48.152;8.590;2023-04-06T07:12:36;7.20;1.00
10304;DHT22;5197;48.152;8.590;2023-04-06T07:15:03;7.50;1.00
10304;DHT22;5197;48.152;8.590;2023-04-06T07:17:30;7.80;1.00
10304;DHT22;5197;48.152;8.590;2023-04-06T07:19:57;8.10;1.00
10304;DHT22;5197;48.152;8.590;2023-04-06T07:22:24;8.40;1.00
10304;DHT22;5197;48.152;8.590;2023-04-06T07:24:51;8.80;1.00
10304;DHT22;5197;48.152;8.590;2023-04-06T07:27:18;9.00;1.00
10304;DHT22;5197;48.152;8.590;2023-04-06T07:29:45;9.20;1.00
10304;DHT22;5197;48.152;8.590;2023-04-06T07:32:12;9.50;1.00
10304;DHT22;5197;48.152;8.590;2023-04-06T07:34:39;9.90;1.00
10304;DHT22;5197;48.152;8.590;2023-04-06T07:37:05;10.10;1.00
10304;DHT22;5197;48.152;8.590;2023-04-06T07:39:33;10.30;1.00
10304;DHT22;5197;48.152;8.590;2023-04-06T07:42:00;10.40;1.00
10304;DHT22;5197;48.152;8.590;2023-04-06T07:44:27;10.70;1.00
10304;DHT22;5197;48.152;8.590;2023-04-06T07:46:53;10.90;1.00
10304;DHT22;5197;48.152;8.590;2023-04-06T07:49:20;11.20;1.00
10304;DHT22;5197;48.152;8.590;2023-04-06T07:51:47;11.40;1.00
10304;DHT22;5197;48.152;8.590;2023-04-06T07:54:14;11.50;1.00
10304;DHT22;5197;48.152;8.590;2023-04-06T07:56:41;11.70;1.00
10304;DHT22;5197;48.152;8.590;2023-04-06T07:59:08;11.80;1.00
10304;DHT22;5197;48.152;8.590;2023-04-06T08:01:35;12.00;1.00
10304;DHT22;5197;48.152;8.590;2023-04-06T08:04:02;12.20;1.00
10304;DHT22;5197;48.152;8.590;2023-04-06T08:06:29;12.30;1.00
10304;DHT22;5197;48.152;8.590;2023-04-06T08:08:56;12.50;1.00
10304;DHT22;5197;48.152;8.590;2023-04-06T08:11:23;12.60;1.00
10304;DHT22;5197;48.152;8.590;2023-04-06T08:13:49;12.80;1.00
10304;DHT22;5197;48.152;8.590;2023-04-06T08:16:17;13.00;1.00
10304;DHT22;5197;48.152;8.590;2023-04-06T08:18:44;13.00;1.00
10304;DHT22;5197;48.152;8.590;2023-04-06T08:21:11;13.10;1.00
10304;DHT22;5197;48.152;8.590;2023-04-06T08:23:37;13.40;1.00
10304;DHT22;5197;48.152;8.590;2023-04-06T08:26:04;13.60;1.00
10304;DHT22;5197;48.152;8.590;2023-04-06T08:28:31;13.70;1.00
10304;DHT22;5197;48.152;8.590;2023-04-06T08:30:59;14.10;1.00
10304;DHT22;5197;48.152;8.590;2023-04-06T08:33:29;14.10;1.00
10304;DHT22;5197;48.152;8.590;2023-04-06T08:35:56;14.10;1.00
10304;DHT22;5197;48.152;8.590;2023-04-06T08:38:23;14.00;1.00
10304;DHT22;5197;48.152;8.590;2023-04-06T08:40:50;13.90;1.00
10304;DHT22;5197;48.152;8.590;2023-04-06T08:43:19;15.10;1.00
10304;DHT22;5197;48.152;8.590;2023-04-06T08:45:48;13.80;1.00
10304;DHT22;5197;48.152;8.590;2023-04-06T08:48:15;13.00;1.00
10304;DHT22;5197;48.152;8.590;2023-04-06T08:50:44;12.40;1.00
10304;DHT22;5197;48.152;8.590;2023-04-06T08:53:11;12.30;1.00
10304;DHT22;5197;48.152;8.590;2023-04-06T08:55:39;12.40;1.00
10304;DHT22;5197;48.152;8.590;2023-04-06T08:58:07;12.60;1.00
10304;DHT22;5197;48.152;8.590;2023-04-06T09:00:38;12.60;1.00
10304;DHT22;5197;48.152;8.590;2023-04-06T09:03:06;12.40;1.00
10304;DHT22;5197;48.152;8.590;2023-04-06T09:05:34;12.00;1.00
10304;DHT22;5197;48.152;8.590;2023-04-06T09:08:01;11.50;1.00
10304;DHT22;5197;48.152;8.590;2023-04-06T09:10:29;11.10;1.00
10304;DHT22;5197;48.152;8.590;2023-04-06T09:13:04;10.90;1.00
10304;DHT22;5197;48.152;8.590;2023-04-06T09:15:31;10.90;1.00
10304;DHT22;5197;48.152;8.590;2023-04-06T09:17:58;10.80;1.00
10304;DHT22;5197;48.152;8.590;2023-04-06T09:20:26;10.80;1.00
10304;DHT22;5197;48.152;8.590;2023-04-06T09:22:55;10.90;1.00
10304;DHT22;5197;48.152;8.590;2023-04-06T09:25:24;10.90;1.00
10304;DHT22;5197;48.152;8.590;2023-04-06T09:28:00;10.80;1.00
10304;DHT22;5197;48.152;8.590;2023-04-06T09:30:28;10.70;1.00
10304;DHT22;5197;48.152;8.590;2023-04-06T09:32:56;10.60;1.00
10304;DHT22;5197;48.152;8.590;2023-04-06T09:35:24;10.70;1.00
10304;DHT22;5197;48.152;8.590;2023-04-06T09:37:53;10.50;1.00
10304;DHT22;5197;48.152;8.590;2023-04-06T09:40:20;10.40;1.00
10304;DHT22;5197;48.152;8.590;2023-04-06T09:42:50;10.20;1.00
10304;DHT22;5197;48.152;8.590;2023-04-06T09:45:19;10.00;1.00
10304;DHT22;5197;48.152;8.590;2023-04-06T09:47:47;9.90;1.00
10304;DHT22;5197;48.152;8.590;2023-04-06T09:50:14;9.70;1.00
10304;DHT22;5197;48.152;8.590;2023-04-06T09:52:47;9.10;1.00
10304;DHT22;5197;48.152;8.590;2023-04-06T09:55:39;8.70;1.00
10304;DHT22;5197;48.152;8.590;2023-04-06T09:58:09;8.60;1.00
10304;DHT22;5197;48.152;8.590;2023-04-06T10:00:57;8.70;1.00
10304;DHT22;5197;48.152;8.590;2023-04-06T10:06:11;9.10;1.00
10304;DHT22;5197;48.152;8.590;2023-04-06T10:08:40;9.10;1.00
10304;DHT22;5197;48.152;8.590;2023-04-06T10:11:08;9.30;1.00
10304;DHT22;5197;48.152;8.590;2023-04-06T10:13:36;9.40;1.00
10304;DHT22;5197;48.152;8.590;2023-04-06T10:16:03;9.60;1.00
10304;DHT22;5197;48.152;8.590;2023-04-06T10:18:31;9.80;1.00
10304;DHT22;5197;48.152;8.590;2023-04-06T10:21:18;9.90;1.00
10304;DHT22;5197;48.152;8.590;2023-04-06T10:24:06;10.00;1.00
10304;DHT22;5197;48.152;8.590;2023-04-06T10:26:33;10.00;1.00
10304;DHT22;5197;48.152;8.590;2023-04-06T10:29:03;10.00;1.00
10304;DHT22;5197;48.152;8.590;2023-04-06T10:31:30;10.00;1.00
10304;DHT22;5197;48.152;8.590;2023-04-06T10:34:01;10.10;1.00
10304;DHT22;5197;48.152;8.590;2023-04-06T10:36:32;10.10;1.00
10304;DHT22;5197;48.152;8.590;2023-04-06T10:39:05;10.00;1.00
10304;DHT22;5197;48.152;8.590;2023-04-06T10:41:43;9.80;1.00
10304;DHT22;5197;48.152;8.590;2023-04-06T10:44:23;9.60;1.00
10304;DHT22;5197;48.152;8.590;2023-04-06T10:46:58;9.50;1.00
10304;DHT22;5197;48.152;8.590;2023-04-06T10:49:27;9.60;1.00
10304;DHT22;5197;48.152;8.590;2023-04-06T10:51:55;9.70;1.00
10304;DHT22;5197;48.152;8.590;2023-04-06T10:54:24;9.80;1.00
10304;DHT22;5197;48.152;8.590;2023-04-06T10:56:52;10.00;1.00
10304;DHT22;5197;48.152;8.590;2023-04-06T10:59:20;10.10;1.00
10304;DHT22;5197;48.152;8.590;2023-04-06T11:01:48;10.60;1.00
10304;DHT22;5197;48.152;8.590;2023-04-06T11:04:19;10.30;1.00
10304;DHT22;5197;48.152;8.590;2023-04-06T11:06:48;10.80;1.00
10304;DHT22;5197;48.152;8.590;2023-04-06T11:11:52;10.40;1.00
10304;DHT22;5197;48.152;8.590;2023-04-06T11:14:19;10.40;1.00
10304;DHT22;5197;48.152;8.590;2023-04-06T11:16:47;11.10;1.00
10304;DHT22;5197;48.152;8.590;2023-04-06T11:19:17;10.60;1.00
10304;DHT22;5197;48.152;8.590;2023-04-06T11:21:48;10.80;1.00
10304;DHT22;5197;48.152;8.590;2023-04-06T11:24:24;10.90;1.00
10304;DHT22;5197;48.152;8.590;2023-04-06T11:26:56;10.80;1.00
10304;DHT22;5197;48.152;8.590;2023-04-06T11:29:26;10.70;1.00
10304;DHT22;5197;48.152;8.590;2023-04-06T11:32:04;10.70;1.00
10304;DHT22;5197;48.152;8.590;2023-04-06T11:34:37;10.90;1.00
10304;DHT22;5197;48.152;8.590;2023-04-06T11:37:11;10.90;1.00
10304;DHT22;5197;48.152;8.590;2023-04-06T11:39:52;10.90;1.00
10304;DHT22;5197;48.152;8.590;2023-04-06T11:42:25;11.10;1.00
10304;DHT22;5197;48.152;8.590;2023-04-06T11:44:56;11.00;1.00
10304;DHT22;5197;48.152;8.590;2023-04-06T11:47:30;11.10;1.00
10304;DHT22;5197;48.152;8.590;2023-04-06T11:50:06;11.10;1.00
10304;DHT22;5197;48.152;8.590;2023-04-06T11:52:33;11.20;1.00
10304;DHT22;5197;48.152;8.590;2023-04-06T11:55:17;11.30;1.00
10304;DHT22;5197;48.152;8.590;2023-04-06T11:57:44;11.50;1.00
10304;DHT22;5197;48.152;8.590;2023-04-06T12:00:12;11.30;1.00
10304;DHT22;5197;48.152;8.590;2023-04-06T12:02:39;11.30;1.00
10304;DHT22;5197;48.152;8.590;2023-04-06T12:05:06;11.20;1.00
10304;DHT22;5197;48.152;8.590;2023-04-06T12:07:34;11.00;1.00
10304;DHT22;5197;48.152;8.590;2023-04-06T12:10:03;11.00;1.00
10304;DHT22;5197;48.152;8.590;2023-04-06T12:12:30;11.10;1.00
10304;DHT22;5197;48.152;8.590;2023-04-06T12:14:57;11.20;1.00
10304;DHT22;5197;48.152;8.590;2023-04-06T12:17:24;11.30;1.00
10304;DHT22;5197;48.152;8.590;2023-04-06T12:19:51;11.30;1.00
10304;DHT22;5197;48.152;8.590;2023-04-06T12:22:18;11.20;1.00
10304;DHT22;5197;48.152;8.590;2023-04-06T12:24:45;11.10;1.00
10304;DHT22;5197;48.152;8.590;2023-04-06T12:27:12;10.80;1.00
10304;DHT22;5197;48.152;8.590;2023-04-06T12:29:38;10.80;1.00
10304;DHT22;5197;48.152;8.590;2023-04-06T12:32:06;10.90;1.00
10304;DHT22;5197;48.152;8.590;2023-04-06T12:34:33;11.00;1.00
10304;DHT22;5197;48.152;8.590;2023-04-06T12:37:00;11.30;1.00
10304;DHT22;5197;48.152;8.590;2023-04-06T12:39:30;11.60;1.00
10304;DHT22;5197;48.152;8.590;2023-04-06T12:41:57;11.80;1.00
10304;DHT22;5197;48.152;8.590;2023-04-06T12:44:24;11.80;1.00
10304;DHT22;5197;48.152;8.590;2023-04-06T12:46:52;11.40;1.00
10304;DHT22;5197;48.152;8.590;2023-04-06T12:49:19;11.20;1.00
10304;DHT22;5197;48.152;8.590;2023-04-06T12:51:47;11.30;1.00
10304;DHT22;5197;48.152;8.590;2023-04-06T12:54:14;11.50;1.00
10304;DHT22;5197;48.152;8.590;2023-04-06T12:56:40;11.90;1.00
10304;DHT22;5197;48.152;8.590;2023-04-06T12:59:07;12.10;1.00
10304;DHT22;5197;48.152;8.590;2023-04-06T13:01:34;12.00;1.00
10304;DHT22;5197;48.152;8.590;2023-04-06T13:04:01;12.00;1.00
10304;DHT22;5197;48.152;8.590;2023-04-06T13:06:28;12.10;1.00
10304;DHT22;5197;48.152;8.590;2023-04-06T13:08:55;12.20;1.00
10304;DHT22;5197;48.152;8.590;2023-04-06T13:11:22;12.30;1.00
10304;DHT22;5197;48.152;8.590;2023-04-06T13:13:52;12.30;1.00
10304;DHT22;5197;48.152;8.590;2023-04-06T13:16:19;12.30;1.00
10304;DHT22;5197;48.152;8.590;2023-04-06T13:18:46;12.20;1.00
10304;DHT22;5197;48.152;8.590;2023-04-06T13:21:16;11.80;1.00
10304;DHT22;5197;48.152;8.590;2023-04-06T13:23:43;11.80;1.00
10304;DHT22;5197;48.152;8.590;2023-04-06T13:26:10;11.40;1.00
10304;DHT22;5197;48.152;8.590;2023-04-06T13:28:37;11.20;1.00
10304;DHT22;5197;48.152;8.590;2023-04-06T13:31:06;11.60;1.00
10304;DHT22;5197;48.152;8.590;2023-04-06T13:33:33;11.10;1.00
10304;DHT22;5197;48.152;8.590;2023-04-06T13:36:00;11.20;1.00
10304;DHT22;5197;48.152;8.590;2023-04-06T13:38:29;11.20;1.00
10304;DHT22;5197;48.152;8.590;2023-04-06T13:40:56;11.30;1.00
10304;DHT22;5197;48.152;8.590;2023-04-06T13:43:22;11.10;1.00
10304;DHT22;5197;48.152;8.590;2023-04-06T13:45:54;11.00;1.00
10304;DHT22;5197;48.152;8.590;2023-04-06T13:48:22;11.10;1.00
10304;DHT22;5197;48.152;8.590;2023-04-06T13:50:49;11.40;1.00
10304;DHT22;5197;48.152;8.590;2023-04-06T13:53:16;11.50;1.00
10304;DHT22;5197;48.152;8.590;2023-04-06T13:55:43;11.70;1.00
10304;DHT22;5197;48.152;8.590;2023-04-06T13:58:12;12.40;1.00
10304;DHT22;5197;48.152;8.590;2023-04-06T14:00:38;11.50;1.00
10304;DHT22;5197;48.152;8.590;2023-04-06T14:03:06;11.30;1.00
10304;DHT22;5197;48.152;8.590;2023-04-06T14:05:33;11.60;1.00
10304;DHT22;5197;48.152;8.590;2023-04-06T14:08:01;11.10;1.00
10304;DHT22;5197;48.152;8.590;2023-04-06T14:10:28;11.10;1.00
10304;DHT22;5197;48.152;8.590;2023-04-06T14:12:55;11.00;1.00
10304;DHT22;5197;48.152;8.590;2023-04-06T14:15:22;11.00;1.00
10304;DHT22;5197;48.152;8.590;2023-04-06T14:17:50;10.90;1.00
10304;DHT22;5197;48.152;8.590;2023-04-06T14:20:18;10.80;1.00
10304;DHT22;5197;48.152;8.590;2023-04-06T14:22:45;10.80;1.00
10304;DHT22;5197;48.152;8.590;2023-04-06T14:25:13;10.80;1.00
10304;DHT22;5197;48.152;8.590;2023-04-06T14:27:40;10.80;1.00
10304;DHT22;5197;48.152;8.590;2023-04-06T14:30:07;10.80;1.00
10304;DHT22;5197;48.152;8.590;2023-04-06T14:32:35;10.70;1.00
10304;DHT22;5197;48.152;8.590;2023-04-06T14:35:04;10.70;1.00
10304;DHT22;5197;48.152;8.590;2023-04-06T14:37:33;10.70;1.00
10304;DHT22;5197;48.152;8.590;2023-04-06T14:40:00;10.80;1.00
10304;DHT22;5197;48.152;8.590;2023-04-06T14:42:27;10.90;1.00
10304;DHT22;5197;48.152;8.590;2023-04-06T14:44:54;10.80;1.00
10304;DHT22;5197;48.152;8.590;2023-04-06T14:47:21;10.80;1.00
10304;DHT22;5197;48.152;8.590;2023-04-06T14:49:51;10.80;1.00
10304;DHT22;5197;48.152;8.590;2023-04-06T14:52:18;10.80;1.00
10304;DHT22;5197;48.152;8.590;2023-04-06T14:54:44;10.90;1.00
10304;DHT22;5197;48.152;8.590;2023-04-06T14:57:11;11.00;1.00
10304;DHT22;5197;48.152;8.590;2023-04-06T14:59:38;10.90;1.00
10304;DHT22;5197;48.152;8.590;2023-04-06T15:02:06;10.90;1.00
10304;DHT22;5197;48.152;8.590;2023-04-06T15:04:36;10.60;1.00
10304;DHT22;5197;48.152;8.590;2023-04-06T15:07:04;10.60;1.00
10304;DHT22;5197;48.152;8.590;2023-04-06T15:09:30;10.60;1.00
10304;DHT22;5197;48.152;8.590;2023-04-06T15:11:57;10.50;1.00
10304;DHT22;5197;48.152;8.590;2023-04-06T15:14:24;10.50;1.00
10304;DHT22;5197;48.152;8.590;2023-04-06T15:16:51;10.50;1.00
10304;DHT22;5197;48.152;8.590;2023-04-06T15:19:18;10.40;1.00
10304;DHT22;5197;48.152;8.590;2023-04-06T15:21:45;10.40;1.00
10304;DHT22;5197;48.152;8.590;2023-04-06T15:24:12;10.20;1.00
10304;DHT22;5197;48.152;8.590;2023-04-06T15:26:39;10.20;1.00
10304;DHT22;5197;48.152;8.590;2023-04-06T15:29:06;10.20;1.00
10304;DHT22;5197;48.152;8.590;2023-04-06T15:31:33;10.10;1.00
10304;DHT22;5197;48.152;8.590;2023-04-06T15:34:05;10.20;1.00
10304;DHT22;5197;48.152;8.590;2023-04-06T15:36:34;10.20;1.00
10304;DHT22;5197;48.152;8.590;2023-04-06T15:39:02;10.30;1.00
10304;DHT22;5197;48.152;8.590;2023-04-06T15:41:30;10.20;1.00
10304;DHT22;5197;48.152;8.590;2023-04-06T15:43:57;10.20;1.00
10304;DHT22;5197;48.152;8.590;2023-04-06T15:46:24;10.20;1.00
10304;DHT22;5197;48.152;8.590;2023-04-06T15:48:54;10.10;1.00
10304;DHT22;5197;48.152;8.590;2023-04-06T15:51:21;10.10;1.00
10304;DHT22;5197;48.152;8.590;2023-04-06T15:53:49;9.90;1.00
10304;DHT22;5197;48.152;8.590;2023-04-06T15:56:16;9.80;1.00
10304;DHT22;5197;48.152;8.590;2023-04-06T15:58:43;9.70;1.00
10304;DHT22;5197;48.152;8.590;2023-04-06T16:01:15;9.60;1.00
10304;DHT22;5197;48.152;8.590;2023-04-06T16:03:42;9.60;1.00
10304;DHT22;5197;48.152;8.590;2023-04-06T16:06:11;9.70;1.00
10304;DHT22;5197;48.152;8.590;2023-04-06T16:08:39;9.70;1.00
10304;DHT22;5197;48.152;8.590;2023-04-06T16:11:06;9.80;1.00
10304;DHT22;5197;48.152;8.590;2023-04-06T16:13:33;9.70;1.00